Time;durP1;ratioP1;P1;durP2;ratioP2;P2;SDS_P1;SDS_P2;PMS_P1;PMS_P2;Temp;Humidity;BMP_temperature;BMP_pressure;BME280_temperature;BME280_humidity;BME280_pressure;Samples;Min_cycle;Max_cycle;Signal;HPM_P1;HPM_P2
2023/02/01 00:02:00;;;;;;;13.70;3.63;;;4.70;99.90;;;;;;5031016;28;20014;-81
2023/02/01 00:04:26;;;;;;;15.07;3.38;;;4.80;99.90;;;;;;5030886;28;20021;-83
2023/02/01 00:06:51;;;;;;;13.90;3.42;;;4.80;99.90;;;;;;5031038;28;20241;-82
2023/02/01 00:09:17;;;;;;;12.15;2.80;;;4.80;99.90;;;;;;5031200;28;20498;-83
2023/02/01 00:11:43;;;;;;;16.63;3.60;;;4.80;99.90;;;;;;5030822;28;20388;-82
2023/02/01 00:14:09;;;;;;;12.75;2.63;;;4.80;99.90;;;;;;5030788;28;20025;-81
2023/02/01 00:16:35;;;;;;;10.13;2.38;;;4.80;99.90;;;;;;5032290;28;20033;-84
2023/02/01 00:19:06;;;;;;;18.98;3.22;;;4.80;99.90;;;;;;5031010;28;20029;-83
2023/02/01 00:21:32;;;;;;;15.02;3.15;;;4.80;99.90;;;;;;5030948;28;20029;-83
2023/02/01 00:23:58;;;;;;;14.98;3.10;;;4.80;99.90;;;;;;5030765;28;20068;-83
2023/02/01 00:26:33;;;;;;;15.15;2.65;;;4.80;99.90;;;;;;5029252;28;20056;-83
2023/02/01 00:29:00;;;;;;;14.68;2.80;;;4.80;99.90;;;;;;5022393;28;20112;-83
2023/02/01 00:31:25;;;;;;;13.05;2.13;;;4.80;99.90;;;;;;5039730;28;20025;-83
2023/02/01 00:33:51;;;;;;;18.17;3.50;;;4.80;99.90;;;;;;5030818;28;20028;-84
2023/02/01 00:36:17;;;;;;;13.05;2.58;;;4.80;99.90;;;;;;5031911;28;20124;-84
2023/02/01 00:38:43;;;;;;;11.30;3.58;;;4.80;99.90;;;;;;5031748;28;20020;-84
2023/02/01 00:41:14;;;;;;;13.15;2.63;;;4.80;99.90;;;;;;5030568;28;20041;-83
2023/02/01 00:43:40;;;;;;;11.48;2.83;;;4.80;99.90;;;;;;5031669;28;20028;-82
2023/02/01 00:46:06;;;;;;;14.80;2.53;;;4.80;99.90;;;;;;5031778;28;20068;-83
2023/02/01 00:48:32;;;;;;;15.60;2.58;;;4.80;99.90;;;;;;5030185;28;20491;-82
2023/02/01 00:51:08;;;;;;;16.33;2.63;;;4.80;99.90;;;;;;5031502;28;20480;-84
2023/02/01 00:53:34;;;;;;;14.07;2.70;;;4.90;99.90;;;;;;5031181;28;20029;-83
2023/02/01 00:56:00;;;;;;;11.40;2.30;;;4.80;99.90;;;;;;5030764;28;20044;-82
2023/02/01 00:58:26;;;;;;;12.80;2.63;;;4.80;99.90;;;;;;5030635;28;20097;-84
2023/02/01 01:01:07;;;;;;;16.10;2.42;;;4.80;99.90;;;;;;5025056;28;20029;-84
2023/02/01 01:03:35;;;;;;;13.48;2.75;;;4.90;99.90;;;;;;5030574;28;20033;-82
2023/02/01 01:06:03;;;;;;;12.48;2.95;;;4.90;99.90;;;;;;5031662;28;20021;-82
2023/02/01 01:08:29;;;;;;;16.40;2.70;;;4.90;99.90;;;;;;5031879;28;20025;-83
2023/02/01 01:10:55;;;;;;;13.40;2.78;;;4.90;99.90;;;;;;5030041;28;20149;-82
2023/02/01 01:13:20;;;;;;;12.93;2.42;;;4.90;99.90;;;;;;5030365;28;20052;-83
2023/02/01 01:15:46;;;;;;;14.50;3.15;;;4.90;99.90;;;;;;5030326;28;20025;-83
2023/02/01 01:18:12;;;;;;;14.90;3.08;;;5.00;99.90;;;;;;5030117;28;20013;-83
2023/02/01 01:20:40;;;;;;;18.55;3.70;;;4.90;99.90;;;;;;5031202;28;20053;-83
2023/02/01 01:23:07;;;;;;;14.57;2.83;;;4.90;99.90;;;;;;5030342;28;20032;-83
2023/02/01 01:25:36;;;;;;;19.60;3.28;;;5.00;99.90;;;;;;5031644;28;20025;-82
2023/02/01 01:28:02;;;;;;;16.75;2.80;;;4.90;99.90;;;;;;5029959;28;20013;-83
2023/02/01 01:30:28;;;;;;;17.45;3.40;;;4.90;99.90;;;;;;5029876;28;20032;-82
2023/02/01 01:32:53;;;;;;;11.77;3.05;;;4.90;99.90;;;;;;5031209;28;20100;-85
2023/02/01 01:35:19;;;;;;;15.77;2.50;;;4.90;99.90;;;;;;5030423;28;20093;-85
2023/02/01 01:37:44;;;;;;;16.23;2.97;;;4.90;99.90;;;;;;5031528;28;20483;-84
2023/02/01 01:40:12;;;;;;;18.33;3.72;;;4.90;99.90;;;;;;5030230;28;20543;-84
2023/02/01 01:42:40;;;;;;;16.13;2.80;;;4.90;99.90;;;;;;5029783;28;20037;-84
2023/02/01 01:45:32;;;;;;;12.55;2.47;;;5.00;99.90;;;;;;5032829;28;20032;-84
2023/02/01 01:48:14;;;;;;;23.13;3.75;;;5.00;99.90;;;;;;5033760;28;20052;-83
2023/02/01 01:50:48;;;;;;;15.60;3.03;;;5.00;99.90;;;;;;5034579;28;20087;-83
2023/02/01 01:53:18;;;;;;;17.67;3.42;;;5.00;99.90;;;;;;5034951;28;20018;-83
2023/02/01 01:55:47;;;;;;;14.27;2.97;;;5.00;99.90;;;;;;5034970;28;20025;-84
2023/02/01 01:58:20;;;;;;;15.77;2.58;;;5.00;99.90;;;;;;5034941;28;20083;-82
2023/02/01 02:00:47;;;;;;;14.13;2.78;;;4.90;99.90;;;;;;5034955;28;20044;-82
2023/02/01 02:03:25;;;;;;;17.13;3.05;;;4.80;99.90;;;;;;5036056;28;20024;-82
2023/02/01 02:05:53;;;;;;;13.23;2.88;;;4.80;99.90;;;;;;5047857;28;20029;-80
2023/02/01 02:08:20;;;;;;;12.43;2.50;;;4.80;99.90;;;;;;5051793;28;20041;-81
2023/02/01 02:11:01;;;;;;;21.70;3.83;;;4.70;99.90;;;;;;5050532;28;20025;-80
2023/02/01 02:13:37;;;;;;;11.82;2.80;;;4.70;99.90;;;;;;5036677;28;20017;-83
2023/02/01 02:16:15;;;;;;;15.40;2.58;;;4.70;99.90;;;;;;5033936;28;20021;-82
2023/02/01 02:18:58;;;;;;;18.45;2.97;;;4.70;99.90;;;;;;5031980;28;20101;-83
2023/02/01 02:21:40;;;;;;;21.25;3.70;;;4.60;99.90;;;;;;5031729;28;20041;-82
2023/02/01 02:24:20;;;;;;;18.52;3.50;;;4.60;99.90;;;;;;5032649;28;20060;-82
2023/02/01 02:27:01;;;;;;;14.40;2.92;;;4.60;99.90;;;;;;5032295;28;20542;-82
2023/02/01 02:30:09;;;;;;;20.08;3.00;;;4.70;99.90;;;;;;5029583;28;20021;-83
2023/02/01 02:33:12;;;;;;;16.65;2.78;;;4.60;99.90;;;;;;5032953;28;20026;-84
2023/02/01 02:36:01;;;;;;;15.47;2.43;;;4.60;99.90;;;;;;5028124;28;20030;-82
2023/02/01 02:38:47;;;;;;;11.45;3.00;;;4.60;99.90;;;;;;5018033;28;20383;-84
2023/02/01 02:47:23;;;;;;;17.27;2.92;;;4.60;99.90;;;;;;5033086;28;20490;-83
2023/02/01 02:47:26;;;;;;;18.10;3.22;;;4.70;99.90;;;;;;5034761;28;20048;-84
2023/02/01 03:04:17;;;;;;;13.88;2.65;;;4.90;99.90;;;;;;5033932;28;20696;-82
2023/02/01 03:06:45;;;;;;;12.63;2.13;;;4.90;99.90;;;;;;5031099;28;20522;-82
2023/02/01 03:09:22;;;;;;;13.00;2.60;;;4.80;99.90;;;;;;5031249;28;20029;-83
2023/02/01 03:14:40;;;;;;;18.58;3.25;;;4.90;99.90;;;;;;5033939;28;20115;-83
2023/02/01 03:17:13;;;;;;;14.00;3.03;;;4.90;99.90;;;;;;5034101;28;20087;-83
2023/02/01 03:19:49;;;;;;;;;;;4.90;99.90;;;;;;5034375;28;20068;-82
2023/02/01 03:22:18;;;;;;;18.33;3.30;;;4.90;99.90;;;;;;5032887;28;20453;-82
2023/02/01 03:24:47;;;;;;;15.93;2.47;;;4.90;99.90;;;;;;5033952;28;20025;-84
2023/02/01 03:27:37;;;;;;;19.33;2.83;;;4.90;99.90;;;;;;5034031;28;20031;-81
2023/02/01 03:30:17;;;;;;;19.63;3.45;;;4.90;99.90;;;;;;5032946;28;20032;-83
2023/02/01 03:33:01;;;;;;;15.02;2.88;;;4.90;99.90;;;;;;5034023;28;20026;-84
2023/02/01 03:35:29;;;;;;;23.55;3.35;;;4.90;99.90;;;;;;5032604;28;20051;-84
2023/02/01 03:38:14;;;;;;;15.90;3.40;;;4.90;99.90;;;;;;5032401;28;20258;-84
2023/02/01 03:40:43;;;;;;;17.60;3.65;;;5.00;99.90;;;;;;5032653;28;20406;-84
2023/02/01 03:43:14;;;;;;;18.40;2.35;;;4.90;99.90;;;;;;5032486;28;20014;-83
2023/02/01 03:45:45;;;;;;;13.05;2.58;;;4.90;99.90;;;;;;5033867;28;20033;-84
2023/02/01 03:48:14;;;;;;;15.32;2.90;;;5.00;99.90;;;;;;5033426;28;20045;-83
2023/02/01 03:50:46;;;;;;;18.98;3.50;;;5.00;99.90;;;;;;5033435;28;20032;-83
2023/02/01 03:53:16;;;;;;;16.85;3.00;;;5.10;99.90;;;;;;5032663;28;20037;-83
2023/02/01 03:55:42;;;;;;;19.10;3.17;;;5.10;99.90;;;;;;5033707;28;20025;-83
2023/02/01 03:58:13;;;;;;;14.98;2.55;;;5.10;99.90;;;;;;5032520;28;20052;-83
2023/02/01 04:00:39;;;;;;;20.40;3.95;;;5.10;99.90;;;;;;5033588;28;20044;-83
2023/02/01 04:03:06;;;;;;;11.98;2.67;;;5.10;99.90;;;;;;5031873;28;20025;-84
2023/02/01 04:05:32;;;;;;;12.80;2.88;;;5.00;99.90;;;;;;5031714;28;20097;-82
2023/02/01 04:07:58;;;;;;;17.85;3.53;;;5.00;99.90;;;;;;5032926;28;20029;-82
2023/02/01 04:10:24;;;;;;;21.80;3.42;;;5.00;99.90;;;;;;5031859;28;20542;-83
2023/02/01 04:12:49;;;;;;;18.50;2.58;;;4.90;99.90;;;;;;5031783;28;20021;-84
2023/02/01 04:15:15;;;;;;;15.75;3.55;;;4.90;99.90;;;;;;5033209;28;20032;-83
2023/02/01 04:17:40;;;;;;;15.50;3.03;;;4.90;99.90;;;;;;5031758;28;20026;-84
2023/02/01 04:20:06;;;;;;;20.50;3.45;;;4.90;99.90;;;;;;5031727;28;20040;-84
2023/02/01 04:22:32;;;;;;;19.80;3.33;;;4.90;99.90;;;;;;5031265;28;20017;-84
2023/02/01 04:24:57;;;;;;;20.20;3.08;;;5.00;99.90;;;;;;5031582;28;20075;-83
2023/02/01 04:27:23;;;;;;;18.30;3.53;;;5.00;99.90;;;;;;5032904;28;20044;-83
2023/02/01 04:29:51;;;;;;;19.75;3.15;;;5.10;99.90;;;;;;5031846;28;20025;-84
2023/02/01 04:32:19;;;;;;;19.88;3.25;;;5.10;99.90;;;;;;5031730;28;20632;-83
2023/02/01 04:34:45;;;;;;;26.02;3.95;;;5.20;99.90;;;;;;5031593;28;20049;-82
2023/02/01 04:37:11;;;;;;;21.90;4.50;;;5.20;99.90;;;;;;5032819;28;20060;-83
2023/02/01 04:39:36;;;;;;;18.80;2.97;;;5.30;99.90;;;;;;5031226;28;20455;-83
2023/02/01 04:42:02;;;;;;;20.90;3.60;;;5.40;99.90;;;;;;5032640;28;20033;-84
2023/02/01 04:44:28;;;;;;;19.20;3.47;;;5.50;99.90;;;;;;5031498;28;20383;-83
2023/02/01 04:46:53;;;;;;;17.92;3.38;;;5.60;99.90;;;;;;5034889;28;20119;-83
2023/02/01 04:49:21;;;;;;;21.15;3.13;;;5.70;99.90;;;;;;5032478;28;20213;-84
2023/02/01 04:51:47;;;;;;;15.77;3.70;;;5.70;99.90;;;;;;5032737;28;20025;-85
2023/02/01 04:54:13;;;;;;;15.90;2.97;;;5.80;99.90;;;;;;5031161;28;20029;-84
2023/02/01 04:56:38;;;;;;;20.20;3.08;;;5.90;99.90;;;;;;5031418;28;20033;-83
2023/02/01 04:59:04;;;;;;;19.95;2.92;;;5.90;99.90;;;;;;5031401;28;20026;-83
2023/02/01 05:01:30;;;;;;;18.10;3.05;;;5.90;99.90;;;;;;5031136;28;20211;-84
2023/02/01 05:03:56;;;;;;;19.85;3.10;;;6.00;99.90;;;;;;5031198;28;20109;-84
2023/02/01 05:06:22;;;;;;;13.73;3.30;;;6.00;99.90;;;;;;5031172;28;20029;-83
2023/02/01 05:08:47;;;;;;;18.58;2.70;;;6.10;99.90;;;;;;5032527;28;20030;-83
2023/02/01 05:13:59;;;;;;;13.20;3.60;;;6.10;99.90;;;;;;5032622;28;20176;-83
2023/02/01 05:16:25;;;;;;;13.95;2.67;;;6.10;99.90;;;;;;5031232;28;20029;-83
2023/02/01 05:18:50;;;;;;;15.80;3.75;;;6.20;99.90;;;;;;5031581;28;20052;-84
2023/02/01 05:21:16;;;;;;;20.80;3.63;;;6.10;99.90;;;;;;5035074;28;20123;-84
2023/02/01 05:26:26;;;;;;;19.38;3.05;;;6.20;99.90;;;;;;5036741;28;20178;-84
2023/02/01 05:28:51;;;;;;;15.32;2.45;;;6.20;99.90;;;;;;5035081;28;20483;-85
2023/02/01 05:31:17;;;;;;;17.73;3.88;;;6.20;99.90;;;;;;5035148;28;20099;-85
2023/02/01 05:33:43;;;;;;;16.90;2.55;;;6.30;99.90;;;;;;5034965;28;20028;-86
2023/02/01 05:36:08;;;;;;;18.38;3.70;;;6.30;99.90;;;;;;5034972;28;20471;-82
2023/02/01 05:38:34;;;;;;;20.58;4.20;;;6.30;99.90;;;;;;5034750;28;20040;-83
2023/02/01 05:41:00;;;;;;;19.73;3.22;;;6.30;99.90;;;;;;5036006;28;20119;-84
2023/02/01 05:43:25;;;;;;;20.58;3.17;;;6.40;99.90;;;;;;5034727;28;20017;-84
2023/02/01 05:45:54;;;;;;;19.70;3.55;;;6.40;99.90;;;;;;5034701;28;20028;-84
2023/02/01 05:48:20;;;;;;;20.65;3.63;;;6.40;99.90;;;;;;5034459;28;20053;-85
2023/02/01 05:50:45;;;;;;;20.30;3.85;;;6.40;99.90;;;;;;5034483;28;20442;-84
2023/02/01 05:53:11;;;;;;;16.92;3.25;;;6.40;99.90;;;;;;5034552;28;20025;-83
2023/02/01 05:55:37;;;;;;;14.63;2.75;;;6.40;99.90;;;;;;5034552;28;20108;-84
2023/02/01 05:58:04;;;;;;;14.55;3.20;;;6.40;99.90;;;;;;5034679;28;20540;-84
2023/02/01 06:00:29;;;;;;;13.68;2.65;;;6.40;99.90;;;;;;5034456;28;20025;-83
2023/02/01 06:02:55;;;;;;;15.95;3.10;;;6.40;99.90;;;;;;5034402;28;20430;-83
2023/02/01 06:05:21;;;;;;;22.85;3.53;;;6.40;99.90;;;;;;5035951;28;20029;-84
2023/02/01 06:07:46;;;;;;;16.23;3.17;;;6.40;99.90;;;;;;5034233;28;20387;-84
2023/02/01 06:10:12;;;;;;;19.48;3.45;;;6.40;99.90;;;;;;5034698;28;20033;-84
2023/02/01 06:12:38;;;;;;;16.60;3.28;;;6.40;99.90;;;;;;5034577;28;20025;-83
2023/02/01 06:15:04;;;;;;;12.60;2.72;;;6.40;99.90;;;;;;5036161;28;20103;-84
2023/02/01 06:17:29;;;;;;;16.10;3.30;;;6.40;99.90;;;;;;5034400;28;20033;-84
2023/02/01 06:19:55;;;;;;;27.65;4.07;;;6.50;99.90;;;;;;5034612;28;20579;-84
2023/02/01 06:22:21;;;;;;;19.92;3.45;;;6.50;99.90;;;;;;5035597;28;20072;-83
2023/02/01 06:24:47;;;;;;;17.05;4.43;;;6.50;99.90;;;;;;5034426;28;20025;-83
2023/02/01 06:27:13;;;;;;;17.67;3.58;;;6.50;99.90;;;;;;5035364;28;20464;-82
2023/02/01 06:29:38;;;;;;;14.60;3.33;;;6.50;99.90;;;;;;5033974;28;20101;-82
2023/02/01 06:32:04;;;;;;;12.82;2.90;;;6.50;99.90;;;;;;5031786;28;20057;-84
2023/02/01 06:34:29;;;;;;;17.20;3.60;;;6.40;99.90;;;;;;5031573;28;20022;-81
2023/02/01 06:36:55;;;;;;;15.68;3.35;;;6.40;99.90;;;;;;5033025;28;20025;-82
2023/02/01 06:39:21;;;;;;;14.88;4.70;;;6.50;99.90;;;;;;5033351;28;20033;-79
2023/02/01 06:41:50;;;;;;;19.45;4.18;;;6.50;99.90;;;;;;5034551;28;20029;-81
2023/02/01 06:44:16;;;;;;;14.13;3.20;;;6.50;99.90;;;;;;5049876;28;20026;-81
2023/02/01 06:46:42;;;;;;;15.57;3.05;;;6.50;99.90;;;;;;5049086;28;20036;-81
2023/02/01 06:49:08;;;;;;;13.57;2.92;;;6.50;99.90;;;;;;5037478;28;20041;-81
2023/02/01 06:51:34;;;;;;;16.45;2.90;;;6.50;99.90;;;;;;5032594;28;20368;-83
2023/02/01 06:54:00;;;;;;;24.75;4.03;;;6.60;99.90;;;;;;5031494;28;20029;-82
2023/02/01 06:56:26;;;;;;;17.52;3.03;;;6.60;99.90;;;;;;5034447;28;20087;-82
2023/02/01 06:58:51;;;;;;;15.60;2.90;;;6.60;99.90;;;;;;5034449;28;20029;-81
2023/02/01 07:01:17;;;;;;;23.38;3.75;;;6.50;99.90;;;;;;5032746;28;20037;-80
2023/02/01 07:03:46;;;;;;;12.68;3.65;;;6.50;99.90;;;;;;5032872;28;20022;-79
2023/02/01 07:06:11;;;;;;;17.45;3.50;;;6.50;99.90;;;;;;5034055;28;20079;-81
2023/02/01 07:08:38;;;;;;;19.17;3.03;;;6.50;99.90;;;;;;5032018;28;20029;-80
2023/02/01 07:11:09;;;;;;;21.20;3.83;;;6.50;99.90;;;;;;5032687;28;20018;-81
2023/02/01 07:13:34;;;;;;;18.08;2.90;;;6.50;99.90;;;;;;5034261;28;20076;-81
2023/02/01 07:16:02;;;;;;;22.63;4.25;;;6.50;99.90;;;;;;5031623;28;20029;-80
2023/02/01 07:18:29;;;;;;;19.08;3.45;;;6.50;99.90;;;;;;5030087;28;20018;-81
2023/02/01 07:20:55;;;;;;;16.75;3.78;;;6.50;99.90;;;;;;5031393;28;20403;-81
2023/02/01 07:23:21;;;;;;;14.82;3.28;;;6.50;99.90;;;;;;5032716;28;20049;-80
2023/02/01 07:25:46;;;;;;;19.10;3.42;;;6.50;99.90;;;;;;5033913;28;20420;-81
2023/02/01 07:28:12;;;;;;;14.27;3.13;;;6.40;99.90;;;;;;5032670;28;20025;-80
2023/02/01 07:30:38;;;;;;;21.20;3.13;;;6.40;99.90;;;;;;5032680;28;20037;-82
2023/02/01 07:33:03;;;;;;;16.55;3.67;;;6.30;99.90;;;;;;5033728;28;20551;-81
2023/02/01 07:35:29;;;;;;;17.55;3.80;;;6.30;99.90;;;;;;5033610;28;20069;-82
2023/02/01 07:37:57;;;;;;;15.10;3.55;;;6.20;99.90;;;;;;5032383;28;20025;-81
2023/02/01 07:40:28;;;;;;;15.05;3.42;;;6.20;99.90;;;;;;5033015;28;20407;-82
2023/02/01 07:42:55;;;;;;;17.65;3.53;;;6.20;99.90;;;;;;5032902;28;20024;-82
2023/02/01 07:45:20;;;;;;;17.65;3.33;;;6.20;99.90;;;;;;5033713;28;20018;-81
2023/02/01 07:47:46;;;;;;;19.65;3.78;;;6.20;99.90;;;;;;5032087;28;20514;-81
2023/02/01 07:50:11;;;;;;;13.27;3.33;;;6.20;99.90;;;;;;5031866;28;20025;-82
2023/02/01 07:52:37;;;;;;;23.65;3.67;;;6.20;99.90;;;;;;5033192;28;20048;-83
2023/02/01 07:55:03;;;;;;;24.55;4.07;;;6.20;99.90;;;;;;5031961;28;20087;-83
2023/02/01 07:57:28;;;;;;;16.77;3.97;;;6.20;99.90;;;;;;5031583;28;20053;-84
2023/02/01 08:02:38;;;;;;;18.35;3.53;;;6.20;99.90;;;;;;5033021;28;20056;-80
2023/02/01 08:05:05;;;;;;;15.10;3.92;;;6.10;99.90;;;;;;5032976;28;20456;-80
2023/02/01 08:07:31;;;;;;;16.00;3.20;;;6.20;99.90;;;;;;5031630;28;20430;-81
2023/02/01 08:09:56;;;;;;;14.80;3.60;;;6.20;99.90;;;;;;5033267;28;20041;-82
2023/02/01 08:12:22;;;;;;;20.65;3.40;;;6.20;99.90;;;;;;5031364;28;20021;-81
2023/02/01 08:14:47;;;;;;;17.52;2.92;;;6.20;99.90;;;;;;5031460;28;20033;-82
2023/02/01 08:17:13;;;;;;;13.95;3.45;;;6.30;99.90;;;;;;5031497;28;20025;-82
2023/02/01 08:19:38;;;;;;;15.35;2.75;;;6.30;99.90;;;;;;5032646;28;20069;-81
2023/02/01 08:22:06;;;;;;;20.38;3.58;;;6.30;99.90;;;;;;5032508;28;20028;-81
2023/02/01 08:24:33;;;;;;;14.90;3.33;;;6.30;99.90;;;;;;5031339;28;20412;-81
2023/02/01 08:27:01;;;;;;;15.85;3.00;;;6.30;99.90;;;;;;5031860;28;20112;-78
2023/02/01 08:29:27;;;;;;;18.83;3.45;;;6.30;99.90;;;;;;5032661;28;20415;-82
2023/02/01 08:31:54;;;;;;;15.93;2.50;;;6.30;99.90;;;;;;5031150;28;20013;-82
2023/02/01 08:34:19;;;;;;;18.83;3.55;;;6.30;99.90;;;;;;5031115;28;20360;-81
2023/02/01 08:36:45;;;;;;;13.35;3.80;;;6.40;99.90;;;;;;5032367;28;20083;-81
2023/02/01 08:39:11;;;;;;;18.38;3.70;;;6.40;99.90;;;;;;5032437;28;20487;-82
2023/02/01 08:41:37;;;;;;;17.85;3.05;;;6.40;99.90;;;;;;5031000;28;20025;-82
2023/02/01 08:44:03;;;;;;;14.75;2.67;;;6.40;99.90;;;;;;5032165;28;20028;-81
2023/02/01 08:46:29;;;;;;;15.75;3.20;;;6.40;99.90;;;;;;5031116;28;20021;-81
2023/02/01 08:48:55;;;;;;;11.98;2.47;;;6.40;99.90;;;;;;5030680;28;20121;-81
2023/02/01 08:51:22;;;;;;;22.38;4.10;;;6.40;99.90;;;;;;5030861;28;20021;-83
2023/02/01 08:53:49;;;;;;;15.75;2.70;;;6.50;99.90;;;;;;5029975;28;20026;-81
2023/02/01 08:56:16;;;;;;;17.42;3.35;;;6.60;99.90;;;;;;5030713;28;20060;-81
2023/02/01 08:58:42;;;;;;;12.35;3.10;;;6.80;99.90;;;;;;5030854;28;20430;-83
2023/02/01 09:01:15;;;;;;;18.25;3.58;;;6.90;99.90;;;;;;5030665;28;20025;-82
2023/02/01 09:03:40;;;;;;;13.07;3.10;;;7.10;99.90;;;;;;5032062;28;20017;-82
2023/02/01 09:06:08;;;;;;;21.02;3.60;;;7.10;99.90;;;;;;5030553;28;20287;-80
2023/02/01 09:08:34;;;;;;;19.80;3.42;;;7.10;99.90;;;;;;5031848;28;20498;-83
2023/02/01 09:11:05;;;;;;;22.60;3.75;;;7.20;99.90;;;;;;5031962;28;20033;-84
2023/02/01 09:13:31;;;;;;;14.55;3.17;;;7.30;99.90;;;;;;5031140;28;20021;-83
2023/02/01 09:15:57;;;;;;;21.63;3.28;;;7.50;99.90;;;;;;5030594;28;20176;-84
2023/02/01 09:18:22;;;;;;;19.20;4.10;;;7.70;99.90;;;;;;5031965;28;20025;-82
2023/02/01 09:20:48;;;;;;;12.85;3.67;;;7.70;99.90;;;;;;5030834;28;20041;-83
2023/02/01 09:23:14;;;;;;;17.13;3.20;;;7.60;99.90;;;;;;5030590;28;20037;-82
2023/02/01 09:25:39;;;;;;;17.77;4.22;;;7.60;99.90;;;;;;5030507;28;20029;-82
2023/02/01 09:28:05;;;;;;;16.33;3.25;;;7.50;99.90;;;;;;5031788;28;20036;-83
2023/02/01 09:30:36;;;;;;;15.18;3.15;;;7.50;99.90;;;;;;5030688;28;20417;-82
2023/02/01 09:33:02;;;;;;;17.55;3.03;;;7.50;99.90;;;;;;5031753;28;20025;-81
2023/02/01 09:35:28;;;;;;;16.58;3.92;;;7.60;99.90;;;;;;5030728;28;20026;-82
2023/02/01 09:37:54;;;;;;;16.95;3.67;;;8.50;99.90;;;;;;5030445;28;20496;-81
2023/02/01 09:40:20;;;;;;;19.23;3.65;;;9.30;99.90;;;;;;5031268;28;20049;-82
2023/02/01 09:43:15;;;;;;;15.25;3.33;;;9.60;99.90;;;;;;5031637;28;20025;-83
2023/02/01 09:45:50;;;;;;;17.10;3.40;;;9.30;99.90;;;;;;5030857;28;20018;-83
2023/02/01 09:48:20;;;;;;;21.67;3.38;;;9.10;99.90;;;;;;5029964;28;20565;-80
2023/02/01 09:50:54;;;;;;;15.02;3.00;;;9.10;99.90;;;;;;5030390;28;20543;-82
2023/02/01 09:53:37;;;;;;;15.65;3.05;;;9.10;99.90;;;;;;5030403;28;20036;-81
2023/02/01 09:56:26;;;;;;;15.15;4.07;;;8.90;99.90;;;;;;5030195;28;20087;-79
2023/02/01 09:59:28;;;;;;;17.67;3.30;;;8.70;99.90;;;;;;5031752;28;20033;-80
2023/02/01 10:01:54;;;;;;;17.98;3.15;;;8.50;99.90;;;;;;5030018;28;20041;-80
2023/02/01 10:04:20;;;;;;;18.90;3.80;;;8.30;99.90;;;;;;5030153;28;20476;-80
2023/02/01 10:07:12;;;;;;;17.45;4.00;;;8.20;99.90;;;;;;5033807;28;20029;-80
2023/02/01 10:09:52;;;;;;;18.48;3.67;;;8.20;99.90;;;;;;5034443;28;20167;-82
2023/02/01 10:12:33;;;;;;;18.45;3.90;;;8.10;99.90;;;;;;5034279;28;20532;-82
2023/02/01 10:15:23;;;;;;;20.65;4.13;;;8.00;99.90;;;;;;5035029;28;20060;-80
2023/02/01 10:18:06;;;;;;;13.05;2.50;;;8.00;99.90;;;;;;5035155;28;20083;-81
2023/02/01 10:20:44;;;;;;;19.23;4.07;;;7.90;99.90;;;;;;5035076;28;20080;-82
2023/02/01 10:23:24;;;;;;;18.33;3.63;;;7.90;99.90;;;;;;5034883;28;20021;-83
2023/02/01 10:26:01;;;;;;;18.60;3.90;;;7.90;99.90;;;;;;5035157;28;20034;-83
2023/02/01 10:28:27;;;;;;;18.33;3.15;;;7.80;99.90;;;;;;5033929;28;20061;-83
2023/02/01 10:30:58;;;;;;;21.15;3.72;;;7.80;99.90;;;;;;5035154;28;20060;-82
2023/02/01 10:33:31;;;;;;;19.55;3.67;;;7.70;99.90;;;;;;5033820;28;20029;-82
2023/02/01 10:36:16;;;;;;;16.27;3.63;;;7.60;99.90;;;;;;5033290;28;20029;-81
2023/02/01 10:38:43;;;;;;;15.38;3.47;;;7.40;99.90;;;;;;5033504;28;20061;-82
2023/02/01 10:41:14;;;;;;;18.17;3.88;;;7.20;99.90;;;;;;5033283;28;20040;-82
2023/02/01 10:43:41;;;;;;;18.55;4.97;;;7.10;99.90;;;;;;5034883;28;20026;-81
2023/02/01 10:46:07;;;;;;;16.55;3.33;;;7.00;99.90;;;;;;5033517;28;20013;-82
2023/02/01 10:48:42;;;;;;;20.00;3.58;;;6.90;99.90;;;;;;5034642;28;20053;-81
2023/02/01 10:51:51;;;;;;;20.67;3.42;;;6.80;99.90;;;;;;5033117;28;20014;-83
2023/02/01 10:54:32;;;;;;;17.95;2.90;;;6.70;99.90;;;;;;5034630;28;20065;-85
2023/02/01 10:56:57;;;;;;;15.85;3.40;;;6.60;99.90;;;;;;5033695;28;20060;-83
2023/02/01 10:59:28;;;;;;;21.73;4.00;;;6.50;99.90;;;;;;5035397;28;20162;-83
2023/02/01 11:02:01;;;;;;;13.60;3.40;;;6.40;99.90;;;;;;5034069;28;20040;-83
2023/02/01 11:04:28;;;;;;;22.33;4.50;;;6.30;99.90;;;;;;5034975;28;20029;-82
2023/02/01 11:07:23;;;;;;;21.67;3.78;;;6.30;99.90;;;;;;5048919;28;20030;-81
2023/02/01 11:09:54;;;;;;;15.35;3.65;;;6.30;99.90;;;;;;5054160;28;20041;-82
2023/02/01 11:12:33;;;;;;;29.13;4.30;;;6.30;99.90;;;;;;5050488;28;20018;-83
2023/02/01 11:15:11;;;;;;;16.73;3.97;;;6.40;99.90;;;;;;5034528;28;20060;-82
2023/02/01 11:17:42;;;;;;;20.35;4.10;;;6.40;99.90;;;;;;5033182;28;20061;-82
2023/02/01 11:20:16;;;;;;;26.88;3.83;;;6.40;99.90;;;;;;5034741;28;20037;-83
2023/02/01 11:22:53;;;;;;;16.55;3.25;;;6.50;99.90;;;;;;5033135;28;20110;-82
2023/02/01 11:25:19;;;;;;;16.92;3.28;;;6.60;99.90;;;;;;5032888;28;20117;-81
2023/02/01 11:27:45;;;;;;;19.38;3.78;;;6.60;99.90;;;;;;5033913;28;20017;-81
2023/02/01 11:30:18;;;;;;;22.80;3.83;;;6.60;99.90;;;;;;5032448;28;20555;-83
2023/02/01 11:32:47;;;;;;;21.60;4.20;;;6.70;99.90;;;;;;5032569;28;20025;-83
2023/02/01 11:35:18;;;;;;;20.65;4.40;;;6.70;99.90;;;;;;5034125;28;20014;-84
2023/02/01 11:37:55;;;;;;;19.23;3.55;;;6.70;99.90;;;;;;5032569;28;20017;-83
2023/02/01 11:40:36;;;;;;;21.35;4.18;;;6.80;99.90;;;;;;5032275;28;20037;-82
2023/02/01 11:43:14;;;;;;;28.45;4.53;;;6.80;99.90;;;;;;5033386;28;20530;-84
2023/02/01 11:45:39;;;;;;;22.38;3.72;;;6.80;99.90;;;;;;5032448;28;20036;-84
2023/02/01 11:48:16;;;;;;;19.13;4.32;;;6.70;99.90;;;;;;5031703;28;20053;-84
2023/02/01 11:51:06;;;;;;;25.92;2.83;;;6.60;99.90;;;;;;5029521;28;20036;-83
2023/02/01 11:53:57;;;;;;;18.30;3.60;;;6.60;99.90;;;;;;5029799;28;20037;-89
2023/02/01 11:56:48;;;;;;;22.27;4.53;;;6.60;99.90;;;;;;5030467;28;20033;-86
2023/02/01 11:59:19;;;;;;;23.95;3.95;;;6.70;99.90;;;;;;5018980;28;20030;-83
2023/02/01 12:01:53;;;;;;;16.50;3.50;;;6.70;99.90;;;;;;5030051;28;20041;-81
2023/02/01 12:04:40;;;;;;;18.70;3.40;;;6.80;99.90;;;;;;5029145;28;20026;-83
2023/02/01 12:07:21;;;;;;;20.65;3.95;;;6.90;99.90;;;;;;5025894;28;20060;-83
2023/02/01 12:10:28;;;;;;;16.33;3.53;;;7.00;99.90;;;;;;5027134;28;20768;-82
2023/02/01 12:13:06;;;;;;;19.73;3.63;;;7.00;99.90;;;;;;5028782;28;20511;-81
2023/02/01 12:15:47;;;;;;;20.08;3.38;;;7.10;99.90;;;;;;5029774;28;20029;-83
2023/02/01 12:18:37;;;;;;;18.38;3.95;;;7.20;99.90;;;;;;5028391;28;20043;-81
2023/02/01 12:21:29;;;;;;;20.00;3.83;;;7.20;99.90;;;;;;5029864;28;20087;-80
2023/02/01 12:24:22;;;;;;;20.17;4.07;;;7.30;99.90;;;;;;5028466;28;20028;-82
2023/02/01 12:27:01;;;;;;;20.30;4.28;;;7.40;99.90;;;;;;5021757;28;20033;-82
2023/02/01 12:29:49;;;;;;;18.15;3.78;;;7.50;99.90;;;;;;5024650;28;20021;-82
2023/02/01 12:32:37;;;;;;;23.02;3.72;;;7.70;99.90;;;;;;5030509;28;20040;-83
2023/02/01 12:35:22;;;;;;;15.30;2.83;;;7.80;99.90;;;;;;5029154;28;20060;-82
2023/02/01 12:37:56;;;;;;;18.55;3.92;;;7.80;99.90;;;;;;5020622;28;20487;-82
2023/02/01 12:41:09;;;;;;;17.92;3.22;;;7.80;99.90;;;;;;5026739;28;20041;-84
2023/02/01 12:43:59;;;;;;;15.18;2.88;;;7.80;99.90;;;;;;5009060;28;20103;-82
2023/02/01 12:46:32;;;;;;;16.55;4.88;;;8.00;99.90;;;;;;5031505;28;20028;-82
2023/02/01 12:49:16;;;;;;;;;;;7.90;99.90;;;;;;5037985;28;20120;-83
2023/02/01 12:51:46;;;;;;;22.35;3.00;;;7.90;99.90;;;;;;5031990;28;20256;-83
2023/02/01 12:54:41;;;;;;;23.35;3.63;;;7.90;99.90;;;;;;5040022;28;20029;-81
2023/02/01 12:57:14;;;;;;;17.90;2.80;;;7.90;99.90;;;;;;5029632;28;20073;-83
2023/02/01 12:59:59;;;;;;;14.07;3.28;;;7.80;99.90;;;;;;5035791;28;20033;-83
2023/02/01 13:02:47;;;;;;;13.05;3.20;;;7.90;99.90;;;;;;5042249;28;20071;-84
2023/02/01 13:05:20;;;;;;;15.45;2.75;;;7.90;99.90;;;;;;5074580;28;20120;-82
2023/02/01 13:08:14;;;;;;;13.43;3.17;;;8.00;99.90;;;;;;5047410;28;20033;-83
2023/02/01 13:10:47;;;;;;;;;;;7.90;99.90;;;;;;5039170;28;20407;-84
2023/02/01 13:13:24;;;;;;;14.93;3.93;;;7.90;99.90;;;;;;5027164;28;19909;-83
2023/02/01 13:16:24;;;;;;;16.33;3.20;;;7.90;99.90;;;;;;5036685;28;20294;-85
2023/02/01 13:18:54;;;;;;;16.55;3.35;;;7.80;99.90;;;;;;5041419;28;20061;-83
2023/02/01 13:21:31;;;;;;;19.27;3.58;;;7.90;99.90;;;;;;5045419;28;20025;-85
2023/02/01 13:23:58;;;;;;;18.20;3.85;;;7.90;99.90;;;;;;5038998;28;20561;-85
2023/02/01 13:26:23;;;;;;;16.63;3.60;;;7.90;99.90;;;;;;5037961;28;20040;-85
2023/02/01 13:29:05;;;;;;;16.27;3.30;;;8.00;99.90;;;;;;5037895;28;20779;-82
2023/02/01 13:31:54;;;;;;;20.05;2.95;;;8.10;99.90;;;;;;5042528;28;20025;-84
2023/02/01 13:34:38;;;;;;;16.35;3.13;;;8.20;99.90;;;;;;5052801;28;20112;-86
2023/02/01 13:37:09;;;;;;;;;;;8.20;99.90;;;;;;5037252;28;20029;-87
2023/02/01 13:39:50;;;;;;;18.85;3.78;;;8.20;99.90;;;;;;5045256;28;19955;-83